createdAt,value
2023-04-20T00:01:13.878Z,22.08
2023-04-20T00:03:41.330Z,22.85
2023-04-20T00:06:09.187Z,17.77
2023-04-20T00:08:36.254Z,16.92
2023-04-20T00:11:03.683Z,21.35
2023-04-20T00:13:30.727Z,20.08
2023-04-20T00:15:58.073Z,21.88
2023-04-20T00:18:25.063Z,21.35
2023-04-20T00:20:52.384Z,18.63
2023-04-20T00:23:19.449Z,18.40
2023-04-20T00:25:49.496Z,19.17
2023-04-20T00:28:16.558Z,23.55
2023-04-20T00:30:43.887Z,20.23
2023-04-20T00:33:10.916Z,16.38
2023-04-20T00:35:38.259Z,25.00
2023-04-20T00:38:05.697Z,20.63
2023-04-20T00:40:33.531Z,18.42
2023-04-20T00:43:12.360Z,17.02
2023-04-20T00:45:39.964Z,18.43
2023-04-20T00:48:07.574Z,21.98
2023-04-20T00:50:35.770Z,19.92
2023-04-20T00:53:03.248Z,19.42
2023-04-20T00:55:30.836Z,21.88
2023-04-20T00:57:58.460Z,19.92
2023-04-20T01:00:26.577Z,19.52
2023-04-20T01:02:53.721Z,17.23
2023-04-20T01:05:21.916Z,16.85
2023-04-20T01:07:49.547Z,20.55
2023-04-20T01:10:16.934Z,21.08
2023-04-20T01:12:43.955Z,21.13
2023-04-20T01:15:13.225Z,21.50
2023-04-20T01:17:40.626Z,21.02
2023-04-20T01:20:14.551Z,20.63
2023-04-20T01:22:49.911Z,19.40
2023-04-20T01:25:18.332Z,21.15
2023-04-20T01:27:46.528Z,21.20
2023-04-20T01:30:14.248Z,18.70
2023-04-20T01:32:41.376Z,17.45
2023-04-20T01:35:09.948Z,19.05
2023-04-20T01:37:39.466Z,17.60
2023-04-20T01:40:09.807Z,18.10
2023-04-20T01:42:37.063Z,21.77
2023-04-20T01:45:06.246Z,17.75
2023-04-20T01:47:34.114Z,16.25
2023-04-20T01:50:01.464Z,14.75
2023-04-20T01:52:28.633Z,15.90
2023-04-20T01:54:56.010Z,19.45
2023-04-20T01:57:25.061Z,17.30
2023-04-20T01:59:52.352Z,18.25
2023-04-20T02:02:19.436Z,15.68
2023-04-20T02:04:46.853Z,14.95
2023-04-20T02:07:13.807Z,16.55
2023-04-20T02:09:41.122Z,13.75
2023-04-20T02:12:10.326Z,17.37
2023-04-20T02:14:39.984Z,17.02
2023-04-20T02:17:11.637Z,12.98
2023-04-20T02:19:38.978Z,15.65
2023-04-20T02:22:06.615Z,16.75
2023-04-20T02:24:33.955Z,19.02
2023-04-20T02:27:02.512Z,13.20
2023-04-20T02:29:29.851Z,16.48
2023-04-20T02:31:56.905Z,22.85
2023-04-20T02:34:24.669Z,15.73
2023-04-20T02:36:51.675Z,15.90
2023-04-20T02:39:19.344Z,13.65
2023-04-20T02:41:46.642Z,17.38
2023-04-20T02:44:14.091Z,15.45
2023-04-20T02:46:41.517Z,15.05
2023-04-20T02:49:08.881Z,20.45
2023-04-20T02:51:40.640Z,14.13
2023-04-20T02:54:08.070Z,14.88
2023-04-20T02:56:35.697Z,15.73
2023-04-20T02:59:07.342Z,15.02
2023-04-20T03:02:04.249Z,15.30
2023-04-20T03:04:32.103Z,19.40
2023-04-20T03:07:07.908Z,17.77
2023-04-20T03:09:37.546Z,16.65
2023-04-20T03:12:13.281Z,12.93
2023-04-20T03:15:00.837Z,12.85
2023-04-20T03:17:47.176Z,13.18
2023-04-20T03:20:15.149Z,18.00
2023-04-20T03:22:42.267Z,16.00
2023-04-20T03:25:10.362Z,17.35
2023-04-20T03:28:06.347Z,20.23
2023-04-20T03:30:34.374Z,16.40
2023-04-20T03:33:06.956Z,19.38
2023-04-20T03:35:34.406Z,19.27
2023-04-20T03:38:01.646Z,18.00
2023-04-20T03:40:29.025Z,17.63
2023-04-20T03:42:56.135Z,16.58
2023-04-20T03:45:23.728Z,16.13
2023-04-20T03:47:50.758Z,16.08
2023-04-20T03:50:18.226Z,17.58
2023-04-20T03:52:45.482Z,15.43
2023-04-20T03:55:12.857Z,16.77
2023-04-20T03:57:45.686Z,14.82
2023-04-20T04:00:23.005Z,17.77
2023-04-20T04:02:57.859Z,13.10
2023-04-20T04:05:28.892Z,14.95
2023-04-20T04:07:56.148Z,15.77
2023-04-20T04:10:26.854Z,22.85
2023-04-20T04:12:57.979Z,14.85
2023-04-20T04:15:28.676Z,14.48
2023-04-20T04:18:03.492Z,15.18
2023-04-20T04:20:33.193Z,15.18
2023-04-20T04:23:02.808Z,17.08
2023-04-20T04:25:48.831Z,16.80
2023-04-20T04:28:21.423Z,22.92
2023-04-20T04:31:10.022Z,12.38
2023-04-20T04:33:45.063Z,14.23
2023-04-20T04:36:21.699Z,14.82
2023-04-20T04:41:38.548Z,20.17
2023-04-20T04:44:37.592Z,17.27
2023-04-20T04:47:07.072Z,13.35
2023-04-20T04:49:40.824Z,20.65
2023-04-20T04:52:09.871Z,14.27
2023-04-20T04:54:54.169Z,20.00
2023-04-20T04:57:27.348Z,13.43
2023-04-20T04:59:54.882Z,18.85
2023-04-20T05:02:28.464Z,15.57
2023-04-20T05:04:56.403Z,15.48
2023-04-20T05:07:24.833Z,19.48
2023-04-20T05:12:27.194Z,13.93
2023-04-20T05:14:54.250Z,13.80
2023-04-20T05:17:21.586Z,16.23
2023-04-20T05:19:48.761Z,15.35
2023-04-20T05:22:16.397Z,19.88
2023-04-20T05:24:43.450Z,15.65
2023-04-20T05:27:11.355Z,11.60
2023-04-20T05:29:39.007Z,12.88
2023-04-20T05:32:06.815Z,11.40
2023-04-20T05:34:34.085Z,14.45
2023-04-20T05:37:08.892Z,11.60
2023-04-20T05:39:40.304Z,14.88
2023-04-20T05:42:07.669Z,15.40
2023-04-20T05:44:36.484Z,13.52
2023-04-20T05:47:08.595Z,16.27
2023-04-20T05:49:36.035Z,15.77
2023-04-20T05:52:03.657Z,15.48
2023-04-20T05:54:30.769Z,16.35
2023-04-20T05:56:58.934Z,16.85
2023-04-20T05:59:26.677Z,15.80
2023-04-20T06:01:54.055Z,13.50
2023-04-20T06:04:21.180Z,14.90
2023-04-20T06:06:48.642Z,14.77
2023-04-20T06:09:15.798Z,16.20
2023-04-20T06:11:43.233Z,17.45
2023-04-20T06:14:12.097Z,16.42
2023-04-20T06:16:39.562Z,13.55
2023-04-20T06:19:06.714Z,18.52
2023-04-20T06:21:35.257Z,16.40
2023-04-20T06:24:02.453Z,14.25
2023-04-20T06:26:29.860Z,14.90
2023-04-20T06:28:56.849Z,15.52
2023-04-20T06:31:24.129Z,14.68
2023-04-20T06:33:51.356Z,12.43
2023-04-20T06:36:18.608Z,17.42
2023-04-20T06:38:45.712Z,17.40
2023-04-20T06:41:12.974Z,14.68
2023-04-20T06:43:42.018Z,14.65
2023-04-20T06:46:09.303Z,17.08
2023-04-20T06:48:36.374Z,13.88
2023-04-20T06:51:03.893Z,14.98
2023-04-20T06:53:31.122Z,16.65
2023-04-20T06:55:58.447Z,28.02
2023-04-20T06:58:25.589Z,19.30
2023-04-20T07:00:52.872Z,14.65
2023-04-20T07:03:20.085Z,11.63
2023-04-20T07:05:47.658Z,15.55
2023-04-20T07:08:16.008Z,15.63
2023-04-20T07:10:43.730Z,13.75
2023-04-20T07:13:10.829Z,17.33
2023-04-20T07:15:38.159Z,19.52
2023-04-20T07:18:05.225Z,15.95
2023-04-20T07:20:33.075Z,15.35
2023-04-20T07:23:00.119Z,13.52
2023-04-20T07:25:27.850Z,17.35
2023-04-20T07:27:54.846Z,14.25
2023-04-20T07:30:22.134Z,16.63
2023-04-20T07:32:49.551Z,13.93
2023-04-20T07:35:17.119Z,20.20
2023-04-20T07:37:44.273Z,17.73
2023-04-20T07:40:11.867Z,15.05
2023-04-20T07:42:39.088Z,15.00
2023-04-20T07:45:07.706Z,21.38
2023-04-20T07:47:35.943Z,15.75
2023-04-20T07:50:07.328Z,15.43
2023-04-20T07:52:35.772Z,14.70
2023-04-20T07:55:05.444Z,12.93
2023-04-20T07:57:32.724Z,15.90
2023-04-20T08:00:00.257Z,16.30
2023-04-20T08:02:27.518Z,21.20
2023-04-20T08:04:55.282Z,17.75
2023-04-20T08:07:23.545Z,18.92
2023-04-20T08:09:50.836Z,15.07
2023-04-20T08:12:17.823Z,22.33
2023-04-20T08:14:45.476Z,18.83
2023-04-20T08:17:12.461Z,18.50
2023-04-20T08:19:40.483Z,21.83
2023-04-20T08:22:12.188Z,18.13
2023-04-20T08:24:39.531Z,16.30
2023-04-20T08:27:08.931Z,16.83
2023-04-20T08:29:36.803Z,20.38
2023-04-20T08:32:04.053Z,14.70
2023-04-20T08:34:31.462Z,17.10
2023-04-20T08:36:58.635Z,21.42
2023-04-20T08:39:26.505Z,14.98
2023-04-20T08:41:55.759Z,24.08
2023-04-20T08:44:24.410Z,18.48
2023-04-20T08:46:51.891Z,19.05
2023-04-20T08:49:20.971Z,20.48
2023-04-20T08:51:48.615Z,14.88
2023-04-20T08:54:16.774Z,16.38
2023-04-20T08:56:46.287Z,20.98
2023-04-20T08:59:15.322Z,19.80
2023-04-20T09:01:43.455Z,19.30
2023-04-20T09:04:20.558Z,18.55
2023-04-20T09:06:50.689Z,16.88
2023-04-20T09:09:23.102Z,20.83
2023-04-20T09:12:07.343Z,18.20
2023-04-20T09:14:48.291Z,13.65
2023-04-20T09:17:17.827Z,15.93
2023-04-20T09:22:13.062Z,18.20
2023-04-20T09:25:18.193Z,16.10
2023-04-20T09:28:01.936Z,21.95
2023-04-20T09:30:43.296Z,22.92
2023-04-20T09:33:14.605Z,16.90
2023-04-20T09:35:43.408Z,16.08
2023-04-20T09:38:14.939Z,22.33
2023-04-20T09:40:42.557Z,17.70
2023-04-20T09:43:15.419Z,17.73
2023-04-20T09:45:43.831Z,15.40
2023-04-20T09:48:11.849Z,16.42
2023-04-20T09:50:48.582Z,23.42
2023-04-20T09:53:18.116Z,15.25
2023-04-20T09:55:51.256Z,19.50
2023-04-20T09:58:20.559Z,15.60
2023-04-20T10:00:48.221Z,16.10
2023-04-20T10:03:19.348Z,21.63
2023-04-20T10:05:47.175Z,18.25
2023-04-20T10:08:14.375Z,18.25
2023-04-20T10:10:49.758Z,19.77
2023-04-20T10:13:19.522Z,18.63
2023-04-20T10:15:47.446Z,18.17
2023-04-20T10:18:23.973Z,18.60
2023-04-20T10:21:03.701Z,20.95
2023-04-20T10:23:30.802Z,18.95
2023-04-20T10:26:00.686Z,22.27
2023-04-20T10:28:45.088Z,17.02
2023-04-20T10:31:14.144Z,18.00
2023-04-20T10:33:54.139Z,16.15
2023-04-20T10:36:31.044Z,14.88
2023-04-20T10:39:05.163Z,15.73
2023-04-20T10:41:32.494Z,14.95
2023-04-20T10:44:09.675Z,18.88
2023-04-20T10:46:37.168Z,14.70
2023-04-20T10:49:04.439Z,14.48
2023-04-20T10:51:32.376Z,14.77
2023-04-20T10:54:07.658Z,16.27
2023-04-20T10:56:42.115Z,13.27
2023-04-20T10:59:11.557Z,21.45
2023-04-20T11:01:39.863Z,24.20
2023-04-20T11:04:07.949Z,18.35
2023-04-20T11:06:35.815Z,20.45
2023-04-20T11:09:03.142Z,19.00
2023-04-20T11:11:30.672Z,21.40
2023-04-20T11:14:08.608Z,17.58
2023-04-20T11:16:49.242Z,14.50
2023-04-20T11:19:23.881Z,19.92
2023-04-20T11:21:51.334Z,15.57
2023-04-20T11:24:22.903Z,17.60
2023-04-20T11:26:51.093Z,11.98
2023-04-20T11:29:55.587Z,13.40
2023-04-20T11:32:23.174Z,22.65
2023-04-20T11:35:06.568Z,16.15
2023-04-20T11:37:49.001Z,14.80
2023-04-20T11:40:16.078Z,17.75
2023-04-20T11:42:43.827Z,19.65
2023-04-20T11:45:11.717Z,21.00
2023-04-20T11:47:41.166Z,13.27
2023-04-20T11:50:10.469Z,14.88
2023-04-20T11:52:37.896Z,13.85
2023-04-20T11:55:06.128Z,13.48
2023-04-20T11:57:34.693Z,15.15
2023-04-20T12:00:02.002Z,17.67
2023-04-20T12:02:29.667Z,15.93
2023-04-20T12:04:57.105Z,16.08
2023-04-20T12:07:24.550Z,16.80
2023-04-20T12:09:51.588Z,16.67
2023-04-20T12:12:19.995Z,18.75
2023-04-20T12:14:47.026Z,18.65
2023-04-20T12:17:14.324Z,14.98
2023-04-20T12:19:41.336Z,14.48
2023-04-20T12:22:08.643Z,13.18
2023-04-20T12:24:35.628Z,13.48
2023-04-20T12:27:03.972Z,15.35
2023-04-20T12:29:33.045Z,15.27
2023-04-20T12:32:00.533Z,16.63
2023-04-20T12:34:27.693Z,14.05
2023-04-20T12:36:55.050Z,15.88
2023-04-20T12:39:22.424Z,9.25
2023-04-20T12:41:49.687Z,15.55
2023-04-20T12:44:17.720Z,13.43
2023-04-20T12:46:45.543Z,13.63
2023-04-20T12:49:12.542Z,12.30
2023-04-20T12:51:40.698Z,12.27
2023-04-20T12:54:08.309Z,9.45
2023-04-20T12:56:36.184Z,10.68
2023-04-20T12:59:03.504Z,10.65
2023-04-20T13:01:31.095Z,12.68
2023-04-20T13:03:58.535Z,14.48
2023-04-20T13:06:26.663Z,11.07
2023-04-20T13:08:53.958Z,15.23
2023-04-20T13:11:22.120Z,12.88
2023-04-20T13:13:49.224Z,13.73
2023-04-20T13:16:16.661Z,13.93
2023-04-20T13:18:43.810Z,13.52
2023-04-20T13:21:11.072Z,13.80
2023-04-20T13:23:39.888Z,14.25
2023-04-20T13:26:07.678Z,13.37
2023-04-20T13:28:34.950Z,13.18
2023-04-20T13:31:02.240Z,13.93
2023-04-20T13:33:29.369Z,13.70
2023-04-20T13:35:56.812Z,11.85
2023-04-20T13:38:23.794Z,13.57
2023-04-20T13:40:51.079Z,13.88
2023-04-20T13:43:19.467Z,16.92
2023-04-20T13:45:48.906Z,18.83
2023-04-20T13:48:16.037Z,16.02
2023-04-20T13:50:43.394Z,15.75
2023-04-20T13:53:10.417Z,14.68
2023-04-20T13:55:37.721Z,14.38
2023-04-20T13:58:04.732Z,14.95
2023-04-20T14:00:33.606Z,18.33
2023-04-20T14:03:02.237Z,14.20
2023-04-20T14:05:29.753Z,16.00
2023-04-20T14:08:01.394Z,14.93
2023-04-20T14:10:29.106Z,16.33
2023-04-20T14:12:56.551Z,13.00
2023-04-20T14:15:23.883Z,14.68
2023-04-20T14:17:52.438Z,13.57
2023-04-20T14:20:20.428Z,16.63
2023-04-20T14:22:47.449Z,16.05
2023-04-20T14:25:14.762Z,14.73
2023-04-20T14:27:41.803Z,12.77
2023-04-20T14:30:09.804Z,12.10
2023-04-20T14:32:36.937Z,14.52
2023-04-20T14:35:05.707Z,10.55
2023-04-20T14:37:33.142Z,18.30
2023-04-20T14:40:00.490Z,14.90
2023-04-20T14:42:27.528Z,15.93
2023-04-20T14:44:54.835Z,15.45
2023-04-20T14:47:21.899Z,14.93
2023-04-20T14:49:49.157Z,16.10
2023-04-20T14:52:16.193Z,11.48
2023-04-20T14:54:43.458Z,10.77
2023-04-20T14:57:10.416Z,19.67
2023-04-20T14:59:37.732Z,14.73
2023-04-20T15:02:05.900Z,14.18
2023-04-20T15:04:33.915Z,9.98
2023-04-20T15:07:01.269Z,13.75
2023-04-20T15:09:28.670Z,19.55
2023-04-20T15:11:56.988Z,12.13
2023-04-20T15:14:24.736Z,14.48
2023-04-20T15:16:52.799Z,15.60
2023-04-20T15:19:22.640Z,12.80
2023-04-20T15:21:50.877Z,13.05
2023-04-20T15:24:18.431Z,11.15
2023-04-20T15:26:45.744Z,10.73
2023-04-20T15:29:13.172Z,10.15
2023-04-20T15:31:40.602Z,10.82
2023-04-20T15:34:07.982Z,11.52
2023-04-20T15:36:35.019Z,11.98
2023-04-20T15:39:02.599Z,11.88
2023-04-20T15:41:29.724Z,15.68
2023-04-20T15:43:57.086Z,23.92
2023-04-20T15:46:26.442Z,19.05
2023-04-20T15:48:54.067Z,12.00
2023-04-20T15:51:21.119Z,11.48
2023-04-20T15:53:50.734Z,9.27
2023-04-20T15:56:22.684Z,19.38
2023-04-20T15:58:51.646Z,13.63
2023-04-20T16:01:19.745Z,12.77
2023-04-20T16:03:48.419Z,15.40
2023-04-20T16:06:15.848Z,13.52
2023-04-20T16:08:43.277Z,17.85
2023-04-20T16:11:10.562Z,12.23
2023-04-20T16:13:37.961Z,15.48
2023-04-20T16:16:05.458Z,12.90
2023-04-20T16:18:33.036Z,14.95
2023-04-20T16:21:00.288Z,12.18
2023-04-20T16:23:28.762Z,11.93
2023-04-20T16:25:55.960Z,12.80
2023-04-20T16:28:23.413Z,13.10
2023-04-20T16:30:50.836Z,13.27
2023-04-20T16:33:19.138Z,15.32
2023-04-20T16:35:46.665Z,14.73
2023-04-20T16:38:14.299Z,11.60
2023-04-20T16:40:43.623Z,12.52
2023-04-20T16:43:11.515Z,16.15
2023-04-20T16:45:39.491Z,10.38
2023-04-20T16:48:08.393Z,10.57
2023-04-20T16:50:38.079Z,13.80
2023-04-20T16:53:09.030Z,10.70
2023-04-20T16:55:38.072Z,12.07
2023-04-20T16:58:06.989Z,12.10
2023-04-20T17:00:35.662Z,16.00
2023-04-20T17:03:10.936Z,10.32
2023-04-20T17:05:42.047Z,12.30
2023-04-20T17:08:12.453Z,12.27
2023-04-20T17:10:41.855Z,13.65
2023-04-20T17:13:11.331Z,11.88
2023-04-20T17:15:40.453Z,14.50
2023-04-20T17:18:10.417Z,9.20
2023-04-20T17:20:39.822Z,10.23
2023-04-20T17:23:12.477Z,15.48
2023-04-20T17:25:42.933Z,9.02
2023-04-20T17:28:17.089Z,11.63
2023-04-20T17:30:45.754Z,16.05
2023-04-20T17:33:14.777Z,16.10
2023-04-20T17:35:43.366Z,10.88
2023-04-20T17:38:11.282Z,13.32
2023-04-20T17:40:38.788Z,11.55
2023-04-20T17:43:07.197Z,10.02
2023-04-20T17:45:38.031Z,13.20
2023-04-20T17:48:09.504Z,10.20
2023-04-20T17:50:37.813Z,13.35
2023-04-20T17:53:11.037Z,13.30
2023-04-20T17:55:43.862Z,12.77
2023-04-20T17:58:13.351Z,9.18
2023-04-20T18:00:43.875Z,10.98
2023-04-20T18:03:14.982Z,14.40
2023-04-20T18:05:46.793Z,17.50
2023-04-20T18:08:17.913Z,11.65
2023-04-20T18:10:47.913Z,9.27
2023-04-20T18:13:16.794Z,18.13
2023-04-20T18:15:44.936Z,15.02
2023-04-20T18:18:14.107Z,12.45
2023-04-20T18:20:44.569Z,9.98
2023-04-20T18:23:14.118Z,9.38
2023-04-20T18:25:43.124Z,13.35
2023-04-20T18:28:15.651Z,15.02
2023-04-20T18:30:47.604Z,11.47
2023-04-20T18:33:22.256Z,12.82
2023-04-20T18:35:53.674Z,9.80
2023-04-20T18:38:26.341Z,12.43
2023-04-20T18:40:54.241Z,9.07
2023-04-20T18:43:26.913Z,11.32
2023-04-20T18:45:56.379Z,10.38
2023-04-20T18:48:33.884Z,9.25
2023-04-20T18:51:05.789Z,8.95
2023-04-20T18:53:34.691Z,9.63
2023-04-20T18:56:05.363Z,10.10
2023-04-20T18:58:34.404Z,13.65
2023-04-20T19:01:03.840Z,16.02
2023-04-20T19:03:33.797Z,10.48
2023-04-20T19:06:02.223Z,10.25
2023-04-20T19:08:32.873Z,10.63
2023-04-20T19:13:37.633Z,8.85
2023-04-20T19:16:07.074Z,11.75
2023-04-20T19:18:36.136Z,10.18
2023-04-20T19:21:07.750Z,9.05
2023-04-20T19:23:38.884Z,11.45
2023-04-20T19:26:08.344Z,12.23
2023-04-20T19:28:41.694Z,12.55
2023-04-20T19:31:11.320Z,11.00
2023-04-20T19:33:43.450Z,9.20
2023-04-20T19:36:23.594Z,10.85
2023-04-20T19:38:55.838Z,9.20
2023-04-20T19:41:24.395Z,8.60
2023-04-20T19:43:53.344Z,10.15
2023-04-20T19:46:21.934Z,9.05
2023-04-20T19:48:53.809Z,12.70
2023-04-20T19:51:26.124Z,10.80
2023-04-20T19:54:01.651Z,14.00
2023-04-20T19:56:33.755Z,11.40
2023-04-20T19:59:05.723Z,11.20
2023-04-20T20:01:41.253Z,9.75
2023-04-20T20:04:20.599Z,8.77
2023-04-20T20:09:23.201Z,9.60
2023-04-20T20:11:52.223Z,7.90
2023-04-20T20:14:20.358Z,9.50
2023-04-20T20:16:49.477Z,9.15
2023-04-20T20:19:22.273Z,9.80
2023-04-20T20:21:50.804Z,10.75
2023-04-20T20:24:22.866Z,10.10
2023-04-20T20:26:51.069Z,14.60
2023-04-20T20:29:19.532Z,13.07
2023-04-20T20:31:50.675Z,15.40
2023-04-20T20:34:18.702Z,13.60
2023-04-20T20:36:48.624Z,12.70
2023-04-20T20:39:17.940Z,10.55
2023-04-20T20:41:50.730Z,12.13
2023-04-20T20:44:22.932Z,8.77
2023-04-20T20:46:57.711Z,5.80
2023-04-20T20:49:29.821Z,9.40
2023-04-20T20:51:58.672Z,11.10
2023-04-20T20:54:27.907Z,8.52
2023-04-20T20:56:55.763Z,6.35
2023-04-20T20:59:23.409Z,12.68
2023-04-20T21:01:56.903Z,9.43
2023-04-20T21:04:26.271Z,8.13
2023-04-20T21:06:54.711Z,12.68
2023-04-20T21:09:25.777Z,6.30
2023-04-20T21:11:54.859Z,8.90
2023-04-20T21:14:24.727Z,9.10
2023-04-20T21:16:54.008Z,13.73
2023-04-20T21:19:24.773Z,8.95
2023-04-20T21:21:59.670Z,7.50
2023-04-20T21:24:32.861Z,7.60
2023-04-20T21:27:00.166Z,11.10
2023-04-20T21:29:30.311Z,10.38
2023-04-20T21:32:00.779Z,11.68
2023-04-20T21:34:30.713Z,12.43
2023-04-20T21:37:07.062Z,8.23
2023-04-20T21:39:37.272Z,9.15
2023-04-20T21:42:07.201Z,8.45
2023-04-20T21:44:35.440Z,9.00
2023-04-20T21:47:09.424Z,10.25
2023-04-20T21:49:37.749Z,6.38
2023-04-20T21:52:07.831Z,9.88
2023-04-20T21:54:36.072Z,11.32
2023-04-20T21:57:06.642Z,7.75
2023-04-20T21:59:36.645Z,12.45
2023-04-20T22:02:06.632Z,9.30
2023-04-20T22:04:35.062Z,11.00
2023-04-20T22:07:02.862Z,7.50
2023-04-20T22:09:32.415Z,12.27
2023-04-20T22:12:02.335Z,9.53
2023-04-20T22:14:32.478Z,6.45
2023-04-20T22:17:01.848Z,9.10
2023-04-20T22:19:31.838Z,9.52
2023-04-20T22:22:02.050Z,8.50
2023-04-20T22:24:34.460Z,15.00
2023-04-20T22:27:06.524Z,10.38
2023-04-20T22:29:36.368Z,10.98
2023-04-20T22:32:11.582Z,12.15
2023-04-20T22:34:45.308Z,7.50
2023-04-20T22:37:12.578Z,8.55
2023-04-20T22:39:50.526Z,8.93
2023-04-20T22:42:17.927Z,14.95
2023-04-20T22:44:48.447Z,10.20
2023-04-20T22:47:21.800Z,9.25
2023-04-20T22:49:53.108Z,15.30
2023-04-20T22:52:22.274Z,10.65
2023-04-20T22:54:51.571Z,6.30
2023-04-20T22:57:23.135Z,13.35
2023-04-20T22:59:53.252Z,7.95
2023-04-20T23:04:56.927Z,16.42
2023-04-20T23:07:34.130Z,12.82
2023-04-20T23:10:01.620Z,12.68
2023-04-20T23:12:31.297Z,8.95
2023-04-20T23:15:02.168Z,8.18
2023-04-20T23:17:36.688Z,8.27
2023-04-20T23:20:07.917Z,10.02
2023-04-20T23:22:39.768Z,6.82
2023-04-20T23:25:07.759Z,10.00
2023-04-20T23:27:37.312Z,8.90
2023-04-20T23:30:11.883Z,8.13
2023-04-20T23:32:43.192Z,11.13
2023-04-20T23:35:12.381Z,9.77
2023-04-20T23:37:41.721Z,9.63
2023-04-20T23:40:10.596Z,12.13
2023-04-20T23:42:39.764Z,8.55
2023-04-20T23:45:08.011Z,9.60
2023-04-20T23:47:35.257Z,11.20
2023-04-20T23:50:08.723Z,11.05
2023-04-20T23:52:36.304Z,9.15
2023-04-20T23:55:13.549Z,12.02
2023-04-20T23:57:40.639Z,12.18
